sensor_id;sensor_type;location;lat;lon;timestamp;pressure;altitude;pressure_sealevel;temperature
49557;BMP280;35462;45.048;7.666;2023-01-29T00:09:33;99551.66;;;7.09
49557;BMP280;35462;45.048;7.666;2023-01-29T00:24:49;99555.81;;;7.06
49557;BMP280;35462;45.048;7.666;2023-01-29T00:40:05;99551.09;;;6.96
49557;BMP280;35462;45.048;7.666;2023-01-29T00:55:21;99556.91;;;7.05
49557;BMP280;35462;45.048;7.666;2023-01-29T01:10:38;99560.53;;;6.97
49557;BMP280;35462;45.048;7.666;2023-01-29T01:25:54;99581.56;;;6.71
49557;BMP280;35462;45.048;7.666;2023-01-29T01:41:12;99589.81;;;6.73
49557;BMP280;35462;45.048;7.666;2023-01-29T01:56:32;99601.78;;;6.67
49557;BMP280;35462;45.048;7.666;2023-01-29T02:11:52;99609.84;;;6.55
49557;BMP280;35462;45.048;7.666;2023-01-29T02:27:15;99613.16;;;6.52
49557;BMP280;35462;45.048;7.666;2023-01-29T02:42:38;99621.75;;;6.30
49557;BMP280;35462;45.048;7.666;2023-01-29T02:58:02;99637.13;;;6.28
49557;BMP280;35462;45.048;7.666;2023-01-29T03:13:38;99653.59;;;6.25
49557;BMP280;35462;45.048;7.666;2023-01-29T03:28:56;99660.97;;;6.20
49557;BMP280;35462;45.048;7.666;2023-01-29T04:00:20;99643.34;;;6.02
49557;BMP280;35462;45.048;7.666;2023-01-29T04:15:54;99654.38;;;5.92
49557;BMP280;35462;45.048;7.666;2023-01-29T05:03:06;99658.81;;;5.88
49557;BMP280;35462;45.048;7.666;2023-01-29T05:18:28;99655.47;;;5.72
49557;BMP280;35462;45.048;7.666;2023-01-29T05:33:52;99673.66;;;5.65
49557;BMP280;35462;45.048;7.666;2023-01-29T05:49:08;99683.66;;;5.75
49557;BMP280;35462;45.048;7.666;2023-01-29T06:04:24;99698.56;;;5.71
49557;BMP280;35462;45.048;7.666;2023-01-29T06:36:21;99730.94;;;5.59
49557;BMP280;35462;45.048;7.666;2023-01-29T06:51:37;99742.72;;;5.50
49557;BMP280;35462;45.048;7.666;2023-01-29T07:06:54;99750.78;;;5.57
49557;BMP280;35462;45.048;7.666;2023-01-29T07:22:10;99776.09;;;5.65
49557;BMP280;35462;45.048;7.666;2023-01-29T07:37:26;99783.00;;;5.69
49557;BMP280;35462;45.048;7.666;2023-01-29T07:52:41;99797.66;;;5.86
49557;BMP280;35462;45.048;7.666;2023-01-29T08:08:00;99802.38;;;5.96
49557;BMP280;35462;45.048;7.666;2023-01-29T08:23:15;99818.94;;;6.12
49557;BMP280;35462;45.048;7.666;2023-01-29T08:38:31;99846.09;;;6.50
49557;BMP280;35462;45.048;7.666;2023-01-29T08:53:47;99859.84;;;6.93
49557;BMP280;35462;45.048;7.666;2023-01-29T09:09:03;99880.81;;;7.09
49557;BMP280;35462;45.048;7.666;2023-01-29T09:24:18;99896.75;;;7.53
49557;BMP280;35462;45.048;7.666;2023-01-29T09:39:34;99879.84;;;7.77
49557;BMP280;35462;45.048;7.666;2023-01-29T09:54:54;99890.09;;;7.82
49557;BMP280;35462;45.048;7.666;2023-01-29T10:10:20;99883.00;;;8.08
49557;BMP280;35462;45.048;7.666;2023-01-29T10:25:39;99875.59;;;8.40
49557;BMP280;35462;45.048;7.666;2023-01-29T10:41:18;99852.63;;;8.69
49557;BMP280;35462;45.048;7.666;2023-01-29T11:12:10;99811.69;;;9.22
49557;BMP280;35462;45.048;7.666;2023-01-29T11:27:32;99774.81;;;9.33
49557;BMP280;35462;45.048;7.666;2023-01-29T11:42:48;99740.53;;;9.43
49557;BMP280;35462;45.048;7.666;2023-01-29T11:58:17;99707.81;;;9.62
49557;BMP280;35462;45.048;7.666;2023-01-29T12:13:34;99693.56;;;9.80
49557;BMP280;35462;45.048;7.666;2023-01-29T12:44:40;99643.78;;;9.99
49557;BMP280;35462;45.048;7.666;2023-01-29T13:00:04;99611.28;;;10.16
49557;BMP280;35462;45.048;7.666;2023-01-29T13:15:30;99594.69;;;10.26
49557;BMP280;35462;45.048;7.666;2023-01-29T13:46:28;99550.81;;;10.25
49557;BMP280;35462;45.048;7.666;2023-01-29T14:17:03;99528.91;;;10.21
49557;BMP280;35462;45.048;7.666;2023-01-29T14:32:45;99531.16;;;10.23
49557;BMP280;35462;45.048;7.666;2023-01-29T14:48:18;99525.50;;;10.21
49557;BMP280;35462;45.048;7.666;2023-01-29T15:18:56;99506.97;;;10.14
49557;BMP280;35462;45.048;7.666;2023-01-29T15:34:18;99511.88;;;10.05
49557;BMP280;35462;45.048;7.666;2023-01-29T15:49:36;99510.72;;;9.99
49557;BMP280;35462;45.048;7.666;2023-01-29T16:04:54;99526.19;;;9.93
49557;BMP280;35462;45.048;7.666;2023-01-29T16:20:29;99523.53;;;9.83
49557;BMP280;35462;45.048;7.666;2023-01-29T16:35:50;99509.53;;;9.72
49557;BMP280;35462;45.048;7.666;2023-01-29T16:51:23;99521.22;;;9.64
49557;BMP280;35462;45.048;7.666;2023-01-29T17:06:42;99521.59;;;9.56
49557;BMP280;35462;45.048;7.666;2023-01-29T17:21:59;99531.69;;;9.43
49557;BMP280;35462;45.048;7.666;2023-01-29T17:37:19;99548.28;;;9.40
49557;BMP280;35462;45.048;7.666;2023-01-29T17:52:34;99549.00;;;9.27
49557;BMP280;35462;45.048;7.666;2023-01-29T18:07:50;99559.53;;;9.23
49557;BMP280;35462;45.048;7.666;2023-01-29T18:23:07;99559.81;;;9.08
49557;BMP280;35462;45.048;7.666;2023-01-29T18:38:23;99555.59;;;8.96
49557;BMP280;35462;45.048;7.666;2023-01-29T18:53:38;99565.38;;;8.92
49557;BMP280;35462;45.048;7.666;2023-01-29T19:08:54;99570.25;;;8.83
49557;BMP280;35462;45.048;7.666;2023-01-29T19:24:10;99562.63;;;8.75
49557;BMP280;35462;45.048;7.666;2023-01-29T19:39:26;99570.84;;;8.66
49557;BMP280;35462;45.048;7.666;2023-01-29T19:54:46;99576.41;;;8.58
49557;BMP280;35462;45.048;7.666;2023-01-29T20:10:03;99566.50;;;8.45
49557;BMP280;35462;45.048;7.666;2023-01-29T20:25:19;99571.69;;;8.34
49557;BMP280;35462;45.048;7.666;2023-01-29T20:40:35;99563.97;;;8.19
49557;BMP280;35462;45.048;7.666;2023-01-29T20:55:51;99574.19;;;8.20
49557;BMP280;35462;45.048;7.666;2023-01-29T21:11:08;99564.66;;;8.12
49557;BMP280;35462;45.048;7.666;2023-01-29T21:26:24;99578.16;;;8.04
49557;BMP280;35462;45.048;7.666;2023-01-29T21:41:40;99579.50;;;7.91
49557;BMP280;35462;45.048;7.666;2023-01-29T21:57:11;99571.50;;;7.84
49557;BMP280;35462;45.048;7.666;2023-01-29T22:12:27;99564.88;;;7.64
49557;BMP280;35462;45.048;7.666;2023-01-29T22:27:43;99562.56;;;7.59
49557;BMP280;35462;45.048;7.666;2023-01-29T22:43:01;99560.41;;;7.42
49557;BMP280;35462;45.048;7.666;2023-01-29T22:58:17;99547.06;;;7.28
49557;BMP280;35462;45.048;7.666;2023-01-29T23:13:32;99531.56;;;7.23
49557;BMP280;35462;45.048;7.666;2023-01-29T23:28:48;99522.31;;;7.07
49557;BMP280;35462;45.048;7.666;2023-01-29T23:44:04;99508.69;;;7.01
49557;BMP280;35462;45.048;7.666;2023-01-29T23:59:20;99499.19;;;6.93
